Terminal Aerodrome Forecast
Issued by NWS

Home | Current Version | Previous Version | Text Only | Print | Product List | Glossary On
Versions: 1 2 3 4 5 6 7 8 9 10 11 12 13 14 15 16 17 18
437
FTUS46 KMFR 042320
TAFLMT
TAF
KLMT 042320Z 0500/0524 26011KT P6SM -SHRA OVC025
     FM050400 VRB03KT P6SM OVC035
     FM052000 23010KT P6SM VCSH OVC040=

USA.gov is the U.S. government's official web portal to all federal, state and local government web resources and services.